createdAt,value
2019-04-25T00:01:57.333Z,97889.76
2019-04-25T00:04:42.611Z,97882.78
2019-04-25T00:07:11.954Z,97888.80
2019-04-25T00:09:43.077Z,97879.55
2019-04-25T00:12:14.690Z,97881.92
2019-04-25T00:14:44.134Z,97880.92
2019-04-25T00:17:13.100Z,97879.50
2019-04-25T00:19:43.341Z,97877.72
2019-04-25T00:22:16.700Z,97874.36
2019-04-25T00:24:51.562Z,97874.91
2019-04-25T00:27:21.686Z,97877.63
2019-04-25T00:29:51.879Z,97876.65
2019-04-25T00:32:21.638Z,97881.39
2019-04-25T00:34:55.786Z,97886.48
2019-04-25T00:37:24.448Z,97883.41
2019-04-25T00:39:55.790Z,97891.17
2019-04-25T00:42:24.525Z,97897.16
2019-04-25T00:44:53.530Z,97899.45
2019-04-25T00:47:22.280Z,97899.98
2019-04-25T00:49:52.391Z,97901.13
2019-04-25T00:52:22.759Z,97902.84
2019-04-25T00:54:52.604Z,97898.84
2019-04-25T00:57:22.502Z,97902.73
2019-04-25T00:59:58.730Z,97898.34
2019-04-25T01:02:35.169Z,97900.86
2019-04-25T01:05:05.057Z,97901.36
2019-04-25T01:07:34.530Z,97893.92
2019-04-25T01:10:05.590Z,97896.70
2019-04-25T01:12:34.242Z,97892.48
2019-04-25T01:15:22.412Z,97902.19
2019-04-25T01:17:52.210Z,97893.58
2019-04-25T01:20:21.590Z,97901.88
2019-04-25T01:22:51.360Z,97900.67
2019-04-25T01:25:20.209Z,97904.72
2019-04-25T01:27:49.717Z,97905.69
2019-04-25T01:30:20.386Z,97907.55
2019-04-25T01:32:50.619Z,97904.87
2019-04-25T01:35:20.900Z,97900.64
2019-04-25T01:37:51.184Z,97895.16
2019-04-25T01:40:37.434Z,97895.31
2019-04-25T01:43:23.706Z,97909.77
2019-04-25T01:45:54.040Z,97903.20
2019-04-25T01:48:23.497Z,97909.05
2019-04-25T01:50:52.825Z,97901.03
2019-04-25T01:53:24.137Z,97905.47
2019-04-25T01:56:02.374Z,97897.38
2019-04-25T01:58:25.521Z,97896.80
2019-04-25T02:00:56.055Z,97885.28
2019-04-25T02:03:27.101Z,97886.04
2019-04-25T02:05:56.156Z,97882.45
2019-04-25T02:08:25.788Z,97884.80
2019-04-25T02:10:58.994Z,97889.25
2019-04-25T02:13:33.626Z,97883.44
2019-04-25T02:16:05.984Z,97875.20
2019-04-25T02:18:34.624Z,97881.48
2019-04-25T02:21:04.516Z,97880.52
2019-04-25T02:23:34.148Z,97885.84
2019-04-25T02:26:13.421Z,97887.91
2019-04-25T02:28:33.805Z,97895.77
2019-04-25T02:31:08.216Z,97891.67
2019-04-25T02:33:40.783Z,97895.59
2019-04-25T02:36:09.505Z,97897.17
2019-04-25T02:38:39.621Z,97897.59
2019-04-25T02:41:09.120Z,97888.74
2019-04-25T02:43:38.189Z,97889.20
2019-04-25T02:46:11.801Z,97888.53
2019-04-25T02:48:51.236Z,97892.44
2019-04-25T02:51:30.863Z,97892.38
2019-04-25T02:54:07.833Z,97890.29
2019-04-25T02:56:38.674Z,97886.69
2019-04-25T02:59:08.798Z,97882.67
2019-04-25T03:01:36.238Z,97887.22
2019-04-25T03:04:10.719Z,97894.14
2019-04-25T03:06:36.314Z,97895.91
2019-04-25T03:09:09.818Z,97903.44
2019-04-25T03:11:38.831Z,97898.40
2019-04-25T03:14:10.029Z,97898.77
2019-04-25T03:16:38.095Z,97901.93
2019-04-25T03:19:26.330Z,97907.06
2019-04-25T03:21:56.564Z,97894.41
2019-04-25T03:24:27.159Z,97897.99
2019-04-25T03:26:55.999Z,97907.35
2019-04-25T03:29:24.879Z,97912.76
2019-04-25T03:31:56.096Z,97911.28
2019-04-25T03:34:29.246Z,97914.09
2019-04-25T03:36:57.914Z,97924.05
2019-04-25T03:39:27.113Z,97920.48
2019-04-25T03:41:56.028Z,97924.59
2019-04-25T03:44:25.374Z,97930.37
2019-04-25T03:46:54.071Z,97934.63
2019-04-25T03:49:23.853Z,97937.20
2019-04-25T03:51:53.843Z,97944.83
2019-04-25T03:54:23.588Z,97942.47
2019-04-25T03:56:58.660Z,97943.09
2019-04-25T03:59:27.339Z,97943.95
2019-04-25T04:01:56.291Z,97944.20
2019-04-25T04:04:25.312Z,97940.52
2019-04-25T04:06:54.014Z,97941.73
2019-04-25T04:09:24.032Z,97934.89
2019-04-25T04:11:53.538Z,97936.05
2019-04-25T04:14:23.957Z,97939.64
2019-04-25T04:17:10.884Z,97938.87
2019-04-25T04:19:57.211Z,97946.05
2019-04-25T04:22:30.854Z,97943.30
2019-04-25T04:25:27.157Z,97950.22
2019-04-25T04:28:00.360Z,97948.86
2019-04-25T04:30:45.377Z,97945.55
2019-04-25T04:33:29.612Z,97938.45
2019-04-25T04:35:49.854Z,97947.36
2019-04-25T04:38:18.697Z,97939.83
2019-04-25T04:40:49.484Z,97944.14
2019-04-25T04:43:23.950Z,97940.44
2019-04-25T04:45:54.163Z,97944.67
2019-04-25T04:48:24.315Z,97945.63
2019-04-25T04:50:58.545Z,97956.82
2019-04-25T04:53:29.203Z,97957.04
2019-04-25T04:56:04.178Z,97957.06
2019-04-25T04:58:40.008Z,97951.95
2019-04-25T05:01:08.666Z,97947.21
2019-04-25T05:04:13.046Z,97957.53
2019-04-25T05:07:01.222Z,97964.39
2019-04-25T05:09:29.974Z,97962.05
2019-04-25T05:11:58.660Z,97960.75
2019-04-25T05:14:27.511Z,97959.52
2019-04-25T05:16:59.366Z,97957.27
2019-04-25T05:19:30.851Z,97960.41
2019-04-25T05:21:59.612Z,97959.65
2019-04-25T05:24:28.323Z,97955.23
2019-04-25T05:26:57.019Z,97958.22
2019-04-25T05:29:26.675Z,97962.86
2019-04-25T05:31:58.307Z,97960.22
2019-04-25T05:34:27.043Z,97953.80
2019-04-25T05:36:56.336Z,97952.58
2019-04-25T05:39:26.972Z,97951.16
2019-04-25T05:42:00.334Z,97957.48
2019-04-25T05:44:28.995Z,97955.16
2019-04-25T05:46:57.661Z,97955.97
2019-04-25T05:49:29.611Z,97960.56
2019-04-25T05:51:59.506Z,97959.01
2019-04-25T05:54:30.050Z,97950.36
2019-04-25T05:57:05.237Z,97944.30
2019-04-25T05:59:35.422Z,97946.64
2019-04-25T06:02:07.396Z,97946.55
2019-04-25T06:04:41.167Z,97949.31
2019-04-25T06:07:14.364Z,97946.98
2019-04-25T06:09:48.639Z,97936.39
2019-04-25T06:12:26.208Z,97936.90
2019-04-25T06:14:56.363Z,97936.83
2019-04-25T06:17:30.151Z,97932.64
2019-04-25T06:20:04.426Z,97942.84
2019-04-25T06:22:50.836Z,97947.60
2019-04-25T06:25:29.758Z,97944.91
2019-04-25T06:27:58.566Z,97953.98
2019-04-25T06:30:31.703Z,97953.55
2019-04-25T06:33:00.579Z,97962.45
2019-04-25T06:35:29.571Z,97951.47
2019-04-25T06:37:58.319Z,97974.97
2019-04-25T06:40:37.130Z,97973.84
2019-04-25T06:43:13.632Z,97969.77
2019-04-25T06:46:00.423Z,98070.97
2019-04-25T06:48:39.594Z,97946.50
2019-04-25T06:51:09.764Z,97908.38
2019-04-25T06:53:38.512Z,97908.38
2019-04-25T06:56:08.634Z,97932.72
2019-04-25T06:58:39.283Z,97936.98
2019-04-25T07:01:08.042Z,97936.98
2019-04-25T07:03:41.763Z,97941.72
2019-04-25T07:06:12.929Z,97922.45
2019-04-25T07:08:43.001Z,97933.02
2019-04-25T07:11:13.983Z,97928.37
2019-04-25T07:13:44.006Z,97925.59
2019-04-25T07:16:13.397Z,97917.07
2019-04-25T07:18:44.115Z,97910.36
2019-04-25T07:21:14.294Z,97903.34
2019-04-25T07:24:04.160Z,97906.02
2019-04-25T07:26:47.187Z,97907.14
2019-04-25T07:29:20.250Z,97907.34
2019-04-25T07:32:06.927Z,97898.55
2019-04-25T07:34:35.597Z,97893.77
2019-04-25T07:37:04.249Z,97899.11
2019-04-25T07:39:34.374Z,97898.48
2019-04-25T07:42:04.147Z,97888.69
2019-04-25T07:44:41.997Z,97893.36
2019-04-25T07:47:05.330Z,97881.34
2019-04-25T07:49:34.839Z,97883.48
2019-04-25T07:52:03.824Z,97892.70
2019-04-25T07:54:34.051Z,97888.11
2019-04-25T07:57:03.617Z,97892.30
2019-04-25T07:59:34.812Z,97891.94
2019-04-25T08:02:03.468Z,97890.05
2019-04-25T08:04:32.205Z,97889.41
2019-04-25T08:07:00.874Z,97890.09
2019-04-25T08:09:29.620Z,97881.00
2019-04-25T08:11:58.288Z,97887.50
2019-04-25T08:14:32.065Z,97889.25
2019-04-25T08:17:08.126Z,97892.79
2019-04-25T08:19:37.177Z,97872.27
2019-04-25T08:22:07.688Z,97875.03
2019-04-25T08:24:46.659Z,97876.09
2019-04-25T08:27:15.313Z,97868.81
2019-04-25T08:29:45.560Z,97879.66
2019-04-25T08:32:15.442Z,97865.05
2019-04-25T08:34:46.723Z,97863.45
2019-04-25T08:37:18.976Z,97861.28
2019-04-25T08:39:45.956Z,97861.34
2019-04-25T08:42:15.163Z,97851.32
2019-04-25T08:44:44.942Z,97846.04
2019-04-25T08:47:14.505Z,97840.66
2019-04-25T08:49:49.611Z,97834.91
2019-04-25T08:52:21.653Z,97834.52
2019-04-25T08:55:04.328Z,97834.70
2019-04-25T08:57:50.233Z,97836.70
2019-04-25T09:00:24.116Z,97832.88
2019-04-25T09:02:54.499Z,97832.72
2019-04-25T09:05:37.427Z,97824.73
2019-04-25T09:08:06.632Z,97822.19
2019-04-25T09:10:41.278Z,97818.92
2019-04-25T09:13:10.238Z,97818.27
2019-04-25T09:15:39.456Z,97817.81
2019-04-25T09:18:08.302Z,97814.69
2019-04-25T09:20:46.643Z,97809.20
2019-04-25T09:23:47.992Z,97807.88
2019-04-25T09:26:30.227Z,97804.44
2019-04-25T09:28:58.968Z,97799.50
2019-04-25T09:31:29.479Z,97798.03
2019-04-25T09:34:09.515Z,97790.11
2019-04-25T09:36:38.324Z,97787.27
2019-04-25T09:39:26.529Z,97792.23
2019-04-25T09:41:55.315Z,97782.12
2019-04-25T09:44:36.147Z,97779.16
2019-04-25T09:47:06.327Z,97775.66
2019-04-25T09:49:36.909Z,97768.79
2019-04-25T09:52:08.180Z,97770.37
2019-04-25T09:54:38.592Z,97767.82
2019-04-25T09:57:13.437Z,97755.80
2019-04-25T09:59:43.651Z,97748.69
2019-04-25T10:02:13.448Z,97747.56
2019-04-25T10:04:42.192Z,97742.02
2019-04-25T10:07:12.003Z,97736.54
2019-04-25T10:10:03.651Z,97729.37
2019-04-25T10:12:41.325Z,97734.20
2019-04-25T10:15:43.012Z,97722.51
2019-04-25T10:18:18.466Z,97715.26
2019-04-25T10:20:54.263Z,97707.07
2019-04-25T10:24:00.733Z,97712.25
2019-04-25T10:26:29.943Z,97703.16
2019-04-25T10:29:03.598Z,97708.22
2019-04-25T10:31:33.903Z,97703.28
2019-04-25T10:34:03.819Z,97707.04
2019-04-25T10:36:33.642Z,97701.14
2019-04-25T10:39:08.625Z,97700.77
2019-04-25T10:41:35.860Z,97701.42
2019-04-25T10:44:05.616Z,97694.27
2019-04-25T10:46:45.681Z,97697.47
2019-04-25T10:49:14.501Z,97699.37
2019-04-25T10:51:44.723Z,97690.34
2019-04-25T10:54:14.564Z,97686.56
2019-04-25T10:56:45.679Z,97687.67
2019-04-25T10:59:15.705Z,97680.37
2019-04-25T11:01:46.021Z,97680.54
2019-04-25T11:04:16.514Z,97678.13
2019-04-25T11:06:45.599Z,97674.43
2019-04-25T11:09:19.110Z,97678.22
2019-04-25T11:11:48.163Z,97682.72
2019-04-25T11:14:23.943Z,97667.05
2019-04-25T11:16:55.051Z,97666.89
2019-04-25T11:19:23.960Z,97664.03
2019-04-25T11:21:53.818Z,97671.02
2019-04-25T11:24:24.539Z,97663.56
2019-04-25T11:26:55.147Z,97666.96
2019-04-25T11:29:24.275Z,97664.33
2019-04-25T11:31:53.467Z,97659.23
2019-04-25T11:34:23.052Z,97655.14
2019-04-25T11:36:51.711Z,97651.70
2019-04-25T11:39:28.042Z,97649.90
2019-04-25T11:41:57.023Z,97651.98
2019-04-25T11:44:25.697Z,97654.34
2019-04-25T11:46:54.421Z,97645.26
2019-04-25T11:49:23.895Z,97648.18
2019-04-25T11:51:52.710Z,97635.98
2019-04-25T11:54:21.376Z,97637.64
2019-04-25T11:56:50.781Z,97626.12
2019-04-25T11:59:23.540Z,97640.54
2019-04-25T12:01:52.439Z,97641.90
2019-04-25T12:04:21.337Z,97640.48
2019-04-25T12:06:50.074Z,97624.91
2019-04-25T12:09:20.238Z,97622.52
2019-04-25T12:11:49.909Z,97612.94
2019-04-25T12:14:18.906Z,97604.95
2019-04-25T12:16:49.080Z,97612.12
2019-04-25T12:19:18.256Z,97609.17
2019-04-25T12:21:46.858Z,97611.20
2019-04-25T12:24:15.601Z,97612.36
2019-04-25T12:26:46.533Z,97610.30
2019-04-25T12:29:14.856Z,97607.00
2019-04-25T12:31:46.412Z,97598.34
2019-04-25T12:34:15.009Z,97599.42
2019-04-25T12:36:44.408Z,97597.88
2019-04-25T12:39:13.995Z,97595.11
2019-04-25T12:41:46.750Z,97595.50
2019-04-25T12:44:33.732Z,97590.91
2019-04-25T12:47:19.441Z,97589.95
2019-04-25T12:49:50.583Z,97587.22
2019-04-25T12:52:19.424Z,97577.07
2019-04-25T12:54:49.765Z,97575.27
2019-04-25T12:57:19.874Z,97572.16
2019-04-25T12:59:51.124Z,97574.70
2019-04-25T13:02:23.554Z,97569.48
2019-04-25T13:05:04.350Z,97568.16
2019-04-25T13:07:32.821Z,97562.53
2019-04-25T13:10:01.470Z,97565.12
2019-04-25T13:12:30.193Z,97569.52
2019-04-25T13:14:58.898Z,97565.27
2019-04-25T13:17:27.610Z,97562.81
2019-04-25T13:19:56.736Z,97551.83
2019-04-25T13:22:27.368Z,97547.39
2019-04-25T13:25:07.101Z,97544.94
2019-04-25T13:27:39.980Z,97536.79
2019-04-25T13:30:19.910Z,97531.43
2019-04-25T13:32:59.140Z,97550.09
2019-04-25T13:35:29.922Z,97549.00
2019-04-25T13:37:59.330Z,97538.88
2019-04-25T13:40:28.066Z,97545.08
2019-04-25T13:42:57.975Z,97542.80
2019-04-25T13:45:26.950Z,97538.77
2019-04-25T13:47:57.313Z,97529.20
2019-04-25T13:50:26.164Z,97518.28
2019-04-25T13:52:54.881Z,97521.87
2019-04-25T13:55:24.028Z,97525.59
2019-04-25T13:57:54.833Z,97522.44
2019-04-25T14:00:26.070Z,97522.27
2019-04-25T14:02:54.825Z,97534.44
2019-04-25T14:05:24.938Z,97526.72
2019-04-25T14:07:54.720Z,97524.70
2019-04-25T14:10:25.179Z,97522.27
2019-04-25T14:12:54.695Z,97511.22
2019-04-25T14:15:25.448Z,97511.12
2019-04-25T14:17:55.920Z,97510.60
2019-04-25T14:20:32.690Z,97515.07
2019-04-25T14:23:03.447Z,97516.86
2019-04-25T14:25:33.118Z,97512.40
2019-04-25T14:28:02.220Z,97506.17
2019-04-25T14:30:34.217Z,97499.41
2019-04-25T14:33:08.794Z,97494.21
2019-04-25T14:35:37.666Z,97488.34
2019-04-25T14:38:06.505Z,97493.56
2019-04-25T14:40:35.229Z,97494.52
2019-04-25T14:43:05.198Z,97489.79
2019-04-25T14:45:44.011Z,97487.25
2019-04-25T14:48:04.889Z,97491.86
2019-04-25T14:50:34.117Z,97494.63
2019-04-25T14:53:03.081Z,97491.05
2019-04-25T14:55:36.405Z,97489.69
2019-04-25T14:58:06.717Z,97485.66
2019-04-25T15:00:42.759Z,97486.98
2019-04-25T15:03:11.920Z,97482.20
2019-04-25T15:05:41.957Z,97481.47
2019-04-25T15:08:11.030Z,97476.06
2019-04-25T15:10:40.949Z,97481.05
2019-04-25T15:13:09.980Z,97481.30
2019-04-25T15:15:38.625Z,97479.34
2019-04-25T15:18:10.504Z,97477.89
2019-04-25T15:20:39.134Z,97478.08
2019-04-25T15:23:07.838Z,97479.70
2019-04-25T15:25:37.035Z,97484.50
2019-04-25T15:28:05.728Z,97480.04
2019-04-25T15:30:36.029Z,97481.23
2019-04-25T15:33:04.907Z,97478.42
2019-04-25T15:35:35.199Z,97484.81
2019-04-25T15:38:08.329Z,97483.48
2019-04-25T15:40:41.669Z,97482.77
2019-04-25T15:43:14.893Z,97485.86
2019-04-25T15:45:45.200Z,97484.29
2019-04-25T15:48:14.036Z,97487.11
2019-04-25T15:50:43.074Z,97484.67
2019-04-25T15:53:11.748Z,97490.94
2019-04-25T15:55:40.812Z,97491.09
2019-04-25T15:58:09.611Z,97493.11
2019-04-25T16:00:38.964Z,97489.73
2019-04-25T16:03:07.733Z,97498.84
2019-04-25T16:05:36.994Z,97495.24
2019-04-25T16:08:06.305Z,97490.28
2019-04-25T16:10:34.980Z,97493.30
2019-04-25T16:13:04.032Z,97490.66
2019-04-25T16:15:33.220Z,97491.03
2019-04-25T16:18:02.044Z,97499.48
2019-04-25T16:20:31.466Z,97505.94
2019-04-25T16:23:00.418Z,97501.70
2019-04-25T16:25:29.969Z,97500.47
2019-04-25T16:27:58.879Z,97503.97
2019-04-25T16:30:32.548Z,97505.78
2019-04-25T16:33:01.236Z,97502.80
2019-04-25T16:35:30.943Z,97509.03
2019-04-25T16:38:00.051Z,97509.23
2019-04-25T16:40:29.835Z,97506.83
2019-04-25T16:43:14.408Z,97511.98
2019-04-25T16:45:46.091Z,97505.40
2019-04-25T16:48:19.927Z,97512.66
2019-04-25T16:50:48.639Z,97509.28
2019-04-25T16:53:17.342Z,97509.61
2019-04-25T16:55:45.879Z,97508.00
2019-04-25T16:58:15.060Z,97510.86
2019-04-25T17:00:48.273Z,97515.83
2019-04-25T17:03:17.707Z,97517.25
2019-04-25T17:05:46.557Z,97528.41
2019-04-25T17:08:15.217Z,97530.30
2019-04-25T17:10:47.198Z,97525.81
2019-04-25T17:13:16.126Z,97531.79
2019-04-25T17:15:46.578Z,97529.66
2019-04-25T17:18:22.831Z,97531.05
2019-04-25T17:21:05.076Z,97533.44
2019-04-25T17:23:34.526Z,97540.06
2019-04-25T17:26:04.551Z,97535.56
2019-04-25T17:28:34.985Z,97539.30
2019-04-25T17:31:20.667Z,97543.76
2019-04-25T17:33:50.976Z,97551.28
2019-04-25T17:36:38.639Z,97554.20
2019-04-25T17:39:27.604Z,97557.82
2019-04-25T17:41:56.380Z,97567.51
2019-04-25T17:44:25.063Z,97567.23
2019-04-25T17:47:05.653Z,97571.20
2019-04-25T17:49:24.027Z,97571.06
2019-04-25T17:51:58.824Z,97574.19
2019-04-25T17:54:27.482Z,97577.91
2019-04-25T17:56:56.418Z,97582.84
2019-04-25T17:59:25.161Z,97590.83
2019-04-25T18:01:59.423Z,97594.73
2019-04-25T18:04:28.128Z,97595.30
2019-04-25T18:06:56.829Z,97595.84
2019-04-25T18:09:25.488Z,97594.64
2019-04-25T18:11:54.201Z,97597.38
2019-04-25T18:14:22.912Z,97603.31
2019-04-25T18:16:57.767Z,97594.63
2019-04-25T18:19:28.300Z,97597.77
2019-04-25T18:21:58.631Z,97603.72
2019-04-25T18:24:41.124Z,97605.78
2019-04-25T18:27:29.790Z,97600.75
2019-04-25T18:30:00.502Z,97610.48
2019-04-25T18:32:31.640Z,97616.97
2019-04-25T18:35:02.005Z,97615.94
2019-04-25T18:37:32.409Z,97625.44
2019-04-25T18:40:02.697Z,97624.34
2019-04-25T18:42:36.512Z,97621.08
2019-04-25T18:45:08.244Z,97623.56
2019-04-25T18:47:38.277Z,97629.83
2019-04-25T18:50:08.365Z,97632.80
2019-04-25T18:52:45.019Z,97625.57
2019-04-25T18:55:20.541Z,97634.59
2019-04-25T18:57:53.838Z,97626.61
2019-04-25T19:00:29.748Z,97629.99
2019-04-25T19:03:06.197Z,97632.23
2019-04-25T19:05:36.535Z,97650.36
2019-04-25T19:08:06.602Z,97644.71
2019-04-25T19:10:35.420Z,97642.27
2019-04-25T19:13:12.494Z,97643.39
2019-04-25T19:15:34.559Z,97641.36
2019-04-25T19:18:03.478Z,97649.40
2019-04-25T19:20:32.247Z,97650.91
2019-04-25T19:23:01.002Z,97652.41
2019-04-25T19:25:29.710Z,97658.73
2019-04-25T19:27:58.363Z,97652.23
2019-04-25T19:30:27.109Z,97650.41
2019-04-25T19:32:55.798Z,97645.63
2019-04-25T19:35:24.569Z,97650.12
2019-04-25T19:37:55.864Z,97634.66
2019-04-25T19:40:30.427Z,97643.03
2019-04-25T19:43:03.782Z,97642.19
2019-04-25T19:45:33.379Z,97637.62
2019-04-25T19:48:02.294Z,97635.79
2019-04-25T19:50:30.949Z,97632.94
2019-04-25T19:52:59.658Z,97632.94
2019-04-25T19:55:28.336Z,97638.37
2019-04-25T19:57:57.077Z,97636.84
2019-04-25T20:00:25.844Z,97610.40
2019-04-25T20:03:11.228Z,97637.83
2019-04-25T20:05:44.710Z,97642.80
2019-04-25T20:08:17.984Z,97635.11
2019-04-25T20:10:48.943Z,97639.77
2019-04-25T20:13:17.860Z,97641.30
2019-04-25T20:15:47.538Z,97639.23
2019-04-25T20:18:16.715Z,97638.56
2019-04-25T20:20:46.025Z,97633.23
2019-04-25T20:23:14.943Z,97633.81
2019-04-25T20:25:44.883Z,97637.96
2019-04-25T20:28:14.025Z,97635.75
2019-04-25T20:30:42.796Z,97632.09
2019-04-25T20:33:11.506Z,97634.36
2019-04-25T20:35:40.175Z,97634.31
2019-04-25T20:38:08.917Z,97638.80
2019-04-25T20:40:37.656Z,97644.00
2019-04-25T20:43:06.324Z,97644.16
2019-04-25T20:45:34.986Z,97641.19
2019-04-25T20:48:03.799Z,97644.06
2019-04-25T20:50:32.531Z,97648.02
2019-04-25T20:53:01.174Z,97656.75
2019-04-25T20:55:29.790Z,97646.53
2019-04-25T20:57:58.370Z,97649.25
2019-04-25T21:00:43.093Z,97645.66
2019-04-25T21:03:11.863Z,97645.66
2019-04-25T21:05:41.677Z,97647.22
2019-04-25T21:08:10.366Z,97644.38
2019-04-25T21:10:39.039Z,97645.02
2019-04-25T21:13:09.338Z,97643.44
2019-04-25T21:15:56.243Z,97644.91
2019-04-25T21:18:26.665Z,97642.98
2019-04-25T21:20:55.251Z,97646.55
2019-04-25T21:23:24.166Z,97649.56
2019-04-25T21:25:53.003Z,97648.06
2019-04-25T21:28:21.736Z,97647.34
2019-04-25T21:30:51.377Z,97645.50
2019-04-25T21:33:20.748Z,97651.39
2019-04-25T21:35:50.867Z,97646.28
2019-04-25T21:38:19.891Z,97650.38
2019-04-25T21:40:59.927Z,97655.92
2019-04-25T21:43:35.674Z,97654.59
2019-04-25T21:46:04.795Z,97652.84
2019-04-25T21:48:33.818Z,97650.98
2019-04-25T21:51:04.528Z,97658.09
2019-04-25T21:53:33.209Z,97662.80
2019-04-25T21:56:02.058Z,97663.01
2019-04-25T21:58:33.899Z,97666.73
2019-04-25T22:01:04.559Z,97661.91
2019-04-25T22:03:33.282Z,97663.66
2019-04-25T22:06:02.936Z,97670.79
2019-04-25T22:08:31.956Z,97666.63
2019-04-25T22:11:01.330Z,97663.33
2019-04-25T22:13:30.193Z,97659.30
2019-04-25T22:15:59.679Z,97666.48
2019-04-25T22:18:29.312Z,97665.11
2019-04-25T22:20:58.350Z,97663.63
2019-04-25T22:23:27.358Z,97667.56
2019-04-25T22:25:58.807Z,97665.34
2019-04-25T22:28:28.082Z,97671.70
2019-04-25T22:30:59.162Z,97673.02
2019-04-25T22:33:29.886Z,97672.41
2019-04-25T22:36:00.406Z,97675.91
2019-04-25T22:38:29.284Z,97670.18
2019-04-25T22:40:58.014Z,97678.52
2019-04-25T22:43:29.875Z,97677.45
2019-04-25T22:46:00.808Z,97679.70
2019-04-25T22:48:35.200Z,97677.72
2019-04-25T22:51:03.883Z,97679.50
2019-04-25T22:53:34.095Z,97678.39
2019-04-25T22:56:03.155Z,97676.30
2019-04-25T22:58:31.820Z,97682.33
2019-04-25T23:01:01.876Z,97689.14
2019-04-25T23:03:35.611Z,97689.41
2019-04-25T23:06:04.321Z,97690.01
2019-04-25T23:08:34.315Z,97690.57
2019-04-25T23:11:04.081Z,97687.23
2019-04-25T23:13:32.899Z,97688.73
2019-04-25T23:16:02.539Z,97687.06
2019-04-25T23:18:32.398Z,97685.52
2019-04-25T23:21:01.283Z,97676.42
2019-04-25T23:23:32.338Z,97672.77
2019-04-25T23:26:03.518Z,97679.44
2019-04-25T23:28:40.944Z,97676.20
2019-04-25T23:31:11.245Z,97679.05
2019-04-25T23:33:40.012Z,97670.09
2019-04-25T23:36:09.348Z,97673.53
2019-04-25T23:38:38.024Z,97673.91
2019-04-25T23:41:09.375Z,97676.11
2019-04-25T23:43:38.318Z,97681.69
2019-04-25T23:46:08.192Z,97679.47
2019-04-25T23:48:37.083Z,97679.28
2019-04-25T23:51:06.359Z,97680.14
2019-04-25T23:53:35.566Z,97669.60
2019-04-25T23:56:04.825Z,97676.59
2019-04-25T23:58:33.602Z,97673.26
